Ridgway, Pennsylvania
Current Conditions -  °F | °C
As of 10:53 AM on Thursday 27 Nov 2014 (Local Time) from KDUJ Reporting Station
Light Snow Light Snow  
Wind Chill: 24°   Ceiling: 2000
Heat Index: 31°   Visibility: 2.5mi
Dew Point: 28°   Wind: 7mph
Humidity: 89%   Direction: 260°W
Pressure: 29.99"   Gusts: NA
Location:  41.42°N, 78.73°W
Report Text: KDUJ 271553Z AUTO 26006KT 2 1/2SM -SN BR FEW010 BKN020 OVC060 M01/M02 A2999 RMK AO2 SNE23B47 SLP174 P0000 T10061022
Loading
Personal Weather Stations






























Interactive Weather Map New forecast layout! Learn more

10-Day Weather Forecast

Advertisements
Track Severe Weather on mobile